sensor_id;sensor_type;location;lat;lon;timestamp;pressure;altitude;pressure_sealevel;temperature;humidity
12987;BME280;58897;51.960;5.582;2023-05-08T00:01:18;101817.25;;;15.04;100.00
12987;BME280;58897;51.960;5.582;2023-05-08T00:03:45;101808.56;;;15.00;100.00
12987;BME280;58897;51.960;5.582;2023-05-08T00:06:11;101815.50;;;14.95;100.00
12987;BME280;58897;51.960;5.582;2023-05-08T00:08:38;101802.75;;;14.95;100.00
12987;BME280;58897;51.960;5.582;2023-05-08T00:11:04;101807.34;;;14.95;100.00
12987;BME280;58897;51.960;5.582;2023-05-08T00:13:31;101811.78;;;14.96;100.00
12987;BME280;58897;51.960;5.582;2023-05-08T00:15:57;101810.41;;;14.92;100.00
12987;BME280;58897;51.960;5.582;2023-05-08T00:18:24;101819.59;;;14.91;100.00
12987;BME280;58897;51.960;5.582;2023-05-08T00:20:50;101815.84;;;14.92;100.00
12987;BME280;58897;51.960;5.582;2023-05-08T00:23:17;101810.06;;;14.87;100.00
12987;BME280;58897;51.960;5.582;2023-05-08T00:25:43;101807.66;;;14.83;100.00
12987;BME280;58897;51.960;5.582;2023-05-08T00:28:10;101796.09;;;14.81;100.00
12987;BME280;58897;51.960;5.582;2023-05-08T00:30:36;101798.69;;;14.83;100.00
12987;BME280;58897;51.960;5.582;2023-05-08T00:33:03;101796.78;;;14.83;100.00
12987;BME280;58897;51.960;5.582;2023-05-08T00:35:29;101795.78;;;14.84;100.00
12987;BME280;58897;51.960;5.582;2023-05-08T00:37:56;101793.25;;;14.83;100.00
12987;BME280;58897;51.960;5.582;2023-05-08T00:40:22;101796.09;;;14.81;100.00
12987;BME280;58897;51.960;5.582;2023-05-08T00:42:49;101801.56;;;14.81;100.00
12987;BME280;58897;51.960;5.582;2023-05-08T00:45:15;101794.22;;;14.74;100.00
12987;BME280;58897;51.960;5.582;2023-05-08T00:47:42;101797.63;;;14.76;100.00
12987;BME280;58897;51.960;5.582;2023-05-08T00:50:09;101795.59;;;14.70;100.00
12987;BME280;58897;51.960;5.582;2023-05-08T00:52:36;101805.09;;;14.74;100.00
12987;BME280;58897;51.960;5.582;2023-05-08T00:55:04;101800.53;;;14.74;100.00
12987;BME280;58897;51.960;5.582;2023-05-08T00:57:32;101806.81;;;14.75;100.00
12987;BME280;58897;51.960;5.582;2023-05-08T01:00:03;101798.47;;;14.76;100.00
12987;BME280;58897;51.960;5.582;2023-05-08T01:02:30;101802.56;;;14.72;100.00
12987;BME280;58897;51.960;5.582;2023-05-08T01:04:57;101792.03;;;14.69;100.00
12987;BME280;58897;51.960;5.582;2023-05-08T01:07:24;101796.25;;;14.64;100.00
12987;BME280;58897;51.960;5.582;2023-05-08T01:09:51;101788.78;;;14.66;100.00
12987;BME280;58897;51.960;5.582;2023-05-08T01:12:33;101795.94;;;14.67;100.00
12987;BME280;58897;51.960;5.582;2023-05-08T01:15:18;101799.97;;;14.63;100.00
12987;BME280;58897;51.960;5.582;2023-05-08T01:20:44;101792.84;;;14.62;100.00
12987;BME280;58897;51.960;5.582;2023-05-08T01:34:09;101796.88;;;14.50;100.00
12987;BME280;58897;51.960;5.582;2023-05-08T01:39:17;101797.56;;;14.44;100.00
12987;BME280;58897;51.960;5.582;2023-05-08T01:42:38;101794.66;;;14.37;100.00
12987;BME280;58897;51.960;5.582;2023-05-08T01:45:18;101791.91;;;14.37;100.00
12987;BME280;58897;51.960;5.582;2023-05-08T01:47:50;101789.06;;;14.39;100.00
12987;BME280;58897;51.960;5.582;2023-05-08T01:50:22;101785.47;;;14.38;100.00
12987;BME280;58897;51.960;5.582;2023-05-08T01:52:57;101789.22;;;14.37;100.00
12987;BME280;58897;51.960;5.582;2023-05-08T01:55:26;101794.81;;;14.36;100.00
12987;BME280;58897;51.960;5.582;2023-05-08T01:57:57;101795.16;;;14.33;100.00
12987;BME280;58897;51.960;5.582;2023-05-08T02:00:25;101801.25;;;14.35;100.00
12987;BME280;58897;51.960;5.582;2023-05-08T02:02:54;101804.34;;;14.40;100.00
12987;BME280;58897;51.960;5.582;2023-05-08T02:05:22;101798.75;;;14.41;100.00
12987;BME280;58897;51.960;5.582;2023-05-08T02:07:50;101801.78;;;14.38;100.00
12987;BME280;58897;51.960;5.582;2023-05-08T02:10:19;101813.16;;;14.34;100.00
12987;BME280;58897;51.960;5.582;2023-05-08T02:12:48;101811.47;;;14.41;100.00
12987;BME280;58897;51.960;5.582;2023-05-08T02:15:16;101803.34;;;14.49;100.00
12987;BME280;58897;51.960;5.582;2023-05-08T02:17:45;101803.00;;;14.44;100.00
12987;BME280;58897;51.960;5.582;2023-05-08T02:20:14;101809.81;;;14.48;100.00
12987;BME280;58897;51.960;5.582;2023-05-08T02:22:43;101812.69;;;14.46;100.00
12987;BME280;58897;51.960;5.582;2023-05-08T02:25:12;101811.50;;;14.49;100.00
12987;BME280;58897;51.960;5.582;2023-05-08T02:27:41;101810.66;;;14.48;100.00
12987;BME280;58897;51.960;5.582;2023-05-08T02:30:13;101812.81;;;14.37;100.00
12987;BME280;58897;51.960;5.582;2023-05-08T02:32:44;101818.09;;;14.38;100.00
12987;BME280;58897;51.960;5.582;2023-05-08T02:35:12;101818.47;;;14.43;100.00
12987;BME280;58897;51.960;5.582;2023-05-08T02:37:42;101817.78;;;14.41;100.00
12987;BME280;58897;51.960;5.582;2023-05-08T02:40:10;101822.03;;;14.44;100.00
12987;BME280;58897;51.960;5.582;2023-05-08T02:42:38;101809.63;;;14.41;100.00
12987;BME280;58897;51.960;5.582;2023-05-08T02:45:06;101808.44;;;14.44;100.00
12987;BME280;58897;51.960;5.582;2023-05-08T02:50:20;101825.56;;;14.36;100.00
12987;BME280;58897;51.960;5.582;2023-05-08T02:52:51;101828.44;;;14.35;100.00
12987;BME280;58897;51.960;5.582;2023-05-08T02:58:02;101829.31;;;14.35;100.00
12987;BME280;58897;51.960;5.582;2023-05-08T03:00:34;101821.75;;;14.29;100.00
12987;BME280;58897;51.960;5.582;2023-05-08T03:03:09;101817.00;;;14.23;100.00
12987;BME280;58897;51.960;5.582;2023-05-08T03:05:38;101823.94;;;14.17;100.00
12987;BME280;58897;51.960;5.582;2023-05-08T03:08:14;101820.91;;;14.20;100.00
12987;BME280;58897;51.960;5.582;2023-05-08T03:10:45;101816.63;;;14.18;100.00
12987;BME280;58897;51.960;5.582;2023-05-08T03:13:15;101813.91;;;14.18;100.00
12987;BME280;58897;51.960;5.582;2023-05-08T03:15:51;101807.63;;;14.17;100.00
12987;BME280;58897;51.960;5.582;2023-05-08T03:18:22;101811.34;;;14.16;100.00
12987;BME280;58897;51.960;5.582;2023-05-08T03:20:52;101809.50;;;14.17;100.00
12987;BME280;58897;51.960;5.582;2023-05-08T03:23:20;101809.13;;;14.12;100.00
12987;BME280;58897;51.960;5.582;2023-05-08T03:25:49;101808.44;;;14.10;100.00
12987;BME280;58897;51.960;5.582;2023-05-08T03:28:16;101807.38;;;14.03;100.00
12987;BME280;58897;51.960;5.582;2023-05-08T03:30:44;101814.72;;;14.10;100.00
12987;BME280;58897;51.960;5.582;2023-05-08T03:33:11;101812.00;;;14.10;100.00
12987;BME280;58897;51.960;5.582;2023-05-08T03:35:38;101807.72;;;14.08;100.00
12987;BME280;58897;51.960;5.582;2023-05-08T03:38:05;101806.53;;;14.02;100.00
12987;BME280;58897;51.960;5.582;2023-05-08T03:40:34;101800.94;;;14.04;100.00
12987;BME280;58897;51.960;5.582;2023-05-08T03:43:07;101794.66;;;14.03;100.00
12987;BME280;58897;51.960;5.582;2023-05-08T03:45:36;101795.69;;;14.02;100.00
12987;BME280;58897;51.960;5.582;2023-05-08T03:48:04;101791.78;;;14.05;100.00
12987;BME280;58897;51.960;5.582;2023-05-08T03:50:31;101798.41;;;14.10;100.00
12987;BME280;58897;51.960;5.582;2023-05-08T03:52:59;101794.31;;;14.06;100.00
12987;BME280;58897;51.960;5.582;2023-05-08T03:55:26;101793.47;;;14.06;100.00
12987;BME280;58897;51.960;5.582;2023-05-08T03:57:58;101801.09;;;14.02;100.00
12987;BME280;58897;51.960;5.582;2023-05-08T04:00:35;101802.31;;;14.08;100.00
12987;BME280;58897;51.960;5.582;2023-05-08T04:03:21;101800.06;;;14.03;100.00
12987;BME280;58897;51.960;5.582;2023-05-08T04:05:59;101799.06;;;14.04;100.00
12987;BME280;58897;51.960;5.582;2023-05-08T04:08:32;101797.00;;;13.98;100.00
12987;BME280;58897;51.960;5.582;2023-05-08T04:11:12;101800.03;;;13.95;100.00
12987;BME280;58897;51.960;5.582;2023-05-08T04:13:48;101799.91;;;13.97;100.00
12987;BME280;58897;51.960;5.582;2023-05-08T04:16:19;101807.50;;;13.93;100.00
12987;BME280;58897;51.960;5.582;2023-05-08T04:18:48;101809.22;;;13.94;100.00
12987;BME280;58897;51.960;5.582;2023-05-08T04:21:18;101805.97;;;13.91;100.00
12987;BME280;58897;51.960;5.582;2023-05-08T04:23:47;101810.53;;;13.90;100.00
12987;BME280;58897;51.960;5.582;2023-05-08T04:26:16;101803.06;;;13.84;100.00
12987;BME280;58897;51.960;5.582;2023-05-08T04:28:44;101811.44;;;13.99;100.00
12987;BME280;58897;51.960;5.582;2023-05-08T04:31:14;101801.69;;;13.88;100.00
12987;BME280;58897;51.960;5.582;2023-05-08T04:33:44;101795.78;;;13.93;100.00
12987;BME280;58897;51.960;5.582;2023-05-08T04:36:12;101806.72;;;13.75;100.00
12987;BME280;58897;51.960;5.582;2023-05-08T04:38:39;101810.81;;;13.79;100.00
12987;BME280;58897;51.960;5.582;2023-05-08T04:41:06;101806.41;;;13.78;100.00
12987;BME280;58897;51.960;5.582;2023-05-08T04:43:34;101805.59;;;13.86;100.00
12987;BME280;58897;51.960;5.582;2023-05-08T04:46:01;101806.00;;;13.99;100.00
12987;BME280;58897;51.960;5.582;2023-05-08T04:48:29;101805.78;;;13.84;100.00
12987;BME280;58897;51.960;5.582;2023-05-08T04:50:58;101811.13;;;14.02;100.00
12987;BME280;58897;51.960;5.582;2023-05-08T04:53:25;101822.25;;;13.91;100.00
12987;BME280;58897;51.960;5.582;2023-05-08T04:55:52;101824.81;;;13.92;100.00
12987;BME280;58897;51.960;5.582;2023-05-08T04:58:18;101827.06;;;13.97;100.00
12987;BME280;58897;51.960;5.582;2023-05-08T05:00:45;101832.00;;;14.01;100.00
12987;BME280;58897;51.960;5.582;2023-05-08T05:03:11;101827.06;;;13.97;100.00
12987;BME280;58897;51.960;5.582;2023-05-08T05:05:38;101824.34;;;13.97;100.00
12987;BME280;58897;51.960;5.582;2023-05-08T05:08:04;101823.66;;;14.03;100.00
12987;BME280;58897;51.960;5.582;2023-05-08T05:10:31;101825.56;;;14.02;100.00
12987;BME280;58897;51.960;5.582;2023-05-08T05:12:57;101827.09;;;14.05;100.00
12987;BME280;58897;51.960;5.582;2023-05-08T05:15:24;101821.63;;;13.97;100.00
12987;BME280;58897;51.960;5.582;2023-05-08T05:17:50;101832.34;;;14.06;100.00
12987;BME280;58897;51.960;5.582;2023-05-08T05:20:17;101825.44;;;14.12;100.00
12987;BME280;58897;51.960;5.582;2023-05-08T05:22:43;101825.16;;;14.23;100.00
12987;BME280;58897;51.960;5.582;2023-05-08T05:25:10;101826.03;;;14.32;100.00
12987;BME280;58897;51.960;5.582;2023-05-08T05:27:37;101836.09;;;14.31;100.00
12987;BME280;58897;51.960;5.582;2023-05-08T05:30:05;101841.91;;;14.52;100.00
12987;BME280;58897;51.960;5.582;2023-05-08T05:32:32;101842.66;;;14.62;100.00
12987;BME280;58897;51.960;5.582;2023-05-08T05:34:58;101838.75;;;14.65;100.00
12987;BME280;58897;51.960;5.582;2023-05-08T05:37:25;101844.09;;;14.91;100.00
12987;BME280;58897;51.960;5.582;2023-05-08T05:39:52;101838.13;;;14.95;100.00
12987;BME280;58897;51.960;5.582;2023-05-08T05:42:18;101837.63;;;15.00;100.00
12987;BME280;58897;51.960;5.582;2023-05-08T05:44:45;101842.22;;;15.07;100.00
12987;BME280;58897;51.960;5.582;2023-05-08T05:47:11;101844.25;;;15.05;100.00
12987;BME280;58897;51.960;5.582;2023-05-08T05:49:38;101847.84;;;15.06;100.00
12987;BME280;58897;51.960;5.582;2023-05-08T05:52:08;101852.28;;;15.07;100.00
12987;BME280;58897;51.960;5.582;2023-05-08T05:54:34;101854.97;;;15.15;100.00
12987;BME280;58897;51.960;5.582;2023-05-08T05:57:01;101856.34;;;15.03;100.00
12987;BME280;58897;51.960;5.582;2023-05-08T05:59:27;101857.84;;;14.97;100.00
12987;BME280;58897;51.960;5.582;2023-05-08T06:01:54;101858.19;;;15.02;100.00
12987;BME280;58897;51.960;5.582;2023-05-08T06:04:20;101854.16;;;15.06;100.00
12987;BME280;58897;51.960;5.582;2023-05-08T06:06:47;101853.56;;;14.78;100.00
12987;BME280;58897;51.960;5.582;2023-05-08T06:09:13;101850.19;;;14.84;100.00
12987;BME280;58897;51.960;5.582;2023-05-08T06:11:41;101849.00;;;14.95;100.00
12987;BME280;58897;51.960;5.582;2023-05-08T06:14:07;101845.09;;;14.90;100.00
12987;BME280;58897;51.960;5.582;2023-05-08T06:16:34;101846.78;;;14.82;100.00
12987;BME280;58897;51.960;5.582;2023-05-08T06:19:01;101848.88;;;15.13;100.00
12987;BME280;58897;51.960;5.582;2023-05-08T06:21:27;101846.66;;;15.16;100.00
12987;BME280;58897;51.960;5.582;2023-05-08T06:23:54;101833.75;;;15.42;100.00
12987;BME280;58897;51.960;5.582;2023-05-08T06:26:20;101841.25;;;15.40;100.00
12987;BME280;58897;51.960;5.582;2023-05-08T06:28:48;101835.13;;;15.55;100.00
12987;BME280;58897;51.960;5.582;2023-05-08T06:31:15;101824.22;;;15.71;100.00
12987;BME280;58897;51.960;5.582;2023-05-08T06:33:41;101836.66;;;15.49;100.00
12987;BME280;58897;51.960;5.582;2023-05-08T06:36:08;101835.59;;;15.42;100.00
12987;BME280;58897;51.960;5.582;2023-05-08T06:38:35;101835.44;;;15.60;100.00
12987;BME280;58897;51.960;5.582;2023-05-08T06:41:01;101824.53;;;15.84;100.00
12987;BME280;58897;51.960;5.582;2023-05-08T06:43:27;101824.88;;;15.81;100.00
12987;BME280;58897;51.960;5.582;2023-05-08T06:45:55;101829.28;;;15.90;100.00
12987;BME280;58897;51.960;5.582;2023-05-08T06:48:22;101825.38;;;15.92;100.00
12987;BME280;58897;51.960;5.582;2023-05-08T06:50:50;101826.19;;;15.93;100.00
12987;BME280;58897;51.960;5.582;2023-05-08T06:53:16;101829.91;;;16.08;100.00
12987;BME280;58897;51.960;5.582;2023-05-08T06:55:43;101826.78;;;16.19;100.00
12987;BME280;58897;51.960;5.582;2023-05-08T06:58:10;101826.16;;;16.09;100.00
12987;BME280;58897;51.960;5.582;2023-05-08T07:00:36;101826.47;;;16.14;100.00
12987;BME280;58897;51.960;5.582;2023-05-08T07:03:03;101821.31;;;16.27;100.00
12987;BME280;58897;51.960;5.582;2023-05-08T07:05:29;101822.50;;;16.25;100.00
12987;BME280;58897;51.960;5.582;2023-05-08T07:07:56;101819.13;;;16.23;100.00
12987;BME280;58897;51.960;5.582;2023-05-08T07:10:22;101821.75;;;16.55;100.00
12987;BME280;58897;51.960;5.582;2023-05-08T07:12:50;101823.25;;;16.57;100.00
12987;BME280;58897;51.960;5.582;2023-05-08T07:15:17;101833.53;;;16.78;100.00
12987;BME280;58897;51.960;5.582;2023-05-08T07:17:49;101825.34;;;17.23;100.00
12987;BME280;58897;51.960;5.582;2023-05-08T07:20:16;101819.34;;;17.88;100.00
12987;BME280;58897;51.960;5.582;2023-05-08T07:22:42;101820.31;;;17.58;100.00
12987;BME280;58897;51.960;5.582;2023-05-08T07:25:09;101828.69;;;17.11;100.00
12987;BME280;58897;51.960;5.582;2023-05-08T07:27:36;101829.56;;;17.11;100.00
12987;BME280;58897;51.960;5.582;2023-05-08T07:30:02;101834.75;;;17.21;100.00
12987;BME280;58897;51.960;5.582;2023-05-08T07:32:29;101836.47;;;16.99;100.00
12987;BME280;58897;51.960;5.582;2023-05-08T07:34:59;101838.28;;;17.07;100.00
12987;BME280;58897;51.960;5.582;2023-05-08T07:37:25;101835.88;;;16.89;100.00
12987;BME280;58897;51.960;5.582;2023-05-08T07:39:52;101838.09;;;16.86;100.00
12987;BME280;58897;51.960;5.582;2023-05-08T07:42:18;101841.78;;;16.70;100.00
12987;BME280;58897;51.960;5.582;2023-05-08T07:44:46;101846.75;;;16.50;100.00
12987;BME280;58897;51.960;5.582;2023-05-08T07:47:20;101852.81;;;16.77;100.00
12987;BME280;58897;51.960;5.582;2023-05-08T07:49:46;101853.56;;;16.93;100.00
12987;BME280;58897;51.960;5.582;2023-05-08T07:52:13;101838.03;;;16.71;100.00
12987;BME280;58897;51.960;5.582;2023-05-08T07:54:39;101839.91;;;16.71;100.00
12987;BME280;58897;51.960;5.582;2023-05-08T07:57:06;101838.81;;;16.80;100.00
12987;BME280;58897;51.960;5.582;2023-05-08T07:59:32;101839.91;;;16.93;100.00
12987;BME280;58897;51.960;5.582;2023-05-08T08:01:59;101836.78;;;17.27;100.00
12987;BME280;58897;51.960;5.582;2023-05-08T08:04:25;101824.19;;;17.41;100.00
12987;BME280;58897;51.960;5.582;2023-05-08T08:06:53;101824.84;;;17.65;100.00
12987;BME280;58897;51.960;5.582;2023-05-08T08:09:20;101807.63;;;18.23;100.00
12987;BME280;58897;51.960;5.582;2023-05-08T08:11:46;101822.03;;;18.17;100.00
12987;BME280;58897;51.960;5.582;2023-05-08T08:14:13;101815.88;;;19.58;100.00
12987;BME280;58897;51.960;5.582;2023-05-08T08:16:39;101804.88;;;19.52;100.00
12987;BME280;58897;51.960;5.582;2023-05-08T08:19:07;101818.94;;;18.85;100.00
12987;BME280;58897;51.960;5.582;2023-05-08T08:21:34;101818.44;;;17.73;100.00
12987;BME280;58897;51.960;5.582;2023-05-08T08:24:00;101832.38;;;17.63;100.00
12987;BME280;58897;51.960;5.582;2023-05-08T08:26:27;101831.97;;;17.29;100.00
12987;BME280;58897;51.960;5.582;2023-05-08T08:28:53;101833.84;;;17.06;100.00
12987;BME280;58897;51.960;5.582;2023-05-08T08:31:20;101829.72;;;17.33;100.00
12987;BME280;58897;51.960;5.582;2023-05-08T08:33:46;101827.50;;;17.73;100.00
12987;BME280;58897;51.960;5.582;2023-05-08T08:36:13;101826.41;;;17.97;100.00
12987;BME280;58897;51.960;5.582;2023-05-08T08:38:40;101818.56;;;17.79;100.00
12987;BME280;58897;51.960;5.582;2023-05-08T08:41:07;101830.31;;;17.65;100.00
12987;BME280;58897;51.960;5.582;2023-05-08T08:43:34;101831.81;;;17.53;100.00
12987;BME280;58897;51.960;5.582;2023-05-08T08:46:02;101825.06;;;17.41;100.00
12987;BME280;58897;51.960;5.582;2023-05-08T08:48:36;101828.44;;;17.66;100.00
12987;BME280;58897;51.960;5.582;2023-05-08T08:51:05;101824.91;;;17.57;100.00
12987;BME280;58897;51.960;5.582;2023-05-08T08:53:42;101820.41;;;17.42;100.00
12987;BME280;58897;51.960;5.582;2023-05-08T08:56:10;101814.97;;;17.79;100.00
12987;BME280;58897;51.960;5.582;2023-05-08T08:58:41;101819.44;;;18.09;100.00
12987;BME280;58897;51.960;5.582;2023-05-08T09:01:15;101815.25;;;17.84;100.00
12987;BME280;58897;51.960;5.582;2023-05-08T09:03:43;101810.63;;;18.28;100.00
12987;BME280;58897;51.960;5.582;2023-05-08T09:06:12;101798.19;;;18.55;100.00
12987;BME280;58897;51.960;5.582;2023-05-08T09:08:39;101798.06;;;20.03;100.00
12987;BME280;58897;51.960;5.582;2023-05-08T09:11:06;101783.31;;;21.19;100.00
12987;BME280;58897;51.960;5.582;2023-05-08T09:13:33;101784.47;;;20.77;100.00
12987;BME280;58897;51.960;5.582;2023-05-08T09:15:59;101781.41;;;21.06;100.00
12987;BME280;58897;51.960;5.582;2023-05-08T09:18:26;101790.22;;;20.95;100.00
12987;BME280;58897;51.960;5.582;2023-05-08T09:20:53;101787.88;;;20.79;100.00
12987;BME280;58897;51.960;5.582;2023-05-08T09:23:19;101793.13;;;20.74;100.00
12987;BME280;58897;51.960;5.582;2023-05-08T09:25:47;101806.16;;;19.35;100.00
12987;BME280;58897;51.960;5.582;2023-05-08T09:28:22;101799.34;;;19.73;100.00
12987;BME280;58897;51.960;5.582;2023-05-08T09:33:19;101811.69;;;19.14;100.00
12987;BME280;58897;51.960;5.582;2023-05-08T09:35:47;101810.53;;;19.50;100.00
12987;BME280;58897;51.960;5.582;2023-05-08T09:41:11;101800.69;;;19.84;100.00
12987;BME280;58897;51.960;5.582;2023-05-08T09:43:43;101811.59;;;19.28;100.00
12987;BME280;58897;51.960;5.582;2023-05-08T09:46:24;101817.13;;;18.42;100.00
12987;BME280;58897;51.960;5.582;2023-05-08T09:48:54;101815.78;;;18.67;100.00
12987;BME280;58897;51.960;5.582;2023-05-08T09:51:21;101811.94;;;19.19;100.00
12987;BME280;58897;51.960;5.582;2023-05-08T09:53:53;101809.56;;;19.37;100.00
12987;BME280;58897;51.960;5.582;2023-05-08T09:56:35;101799.69;;;19.63;100.00
12987;BME280;58897;51.960;5.582;2023-05-08T09:59:04;101808.25;;;19.54;100.00
12987;BME280;58897;51.960;5.582;2023-05-08T10:01:33;101800.09;;;19.88;100.00
12987;BME280;58897;51.960;5.582;2023-05-08T10:04:01;101798.91;;;20.38;100.00
12987;BME280;58897;51.960;5.582;2023-05-08T10:06:29;101802.53;;;20.45;100.00
12987;BME280;58897;51.960;5.582;2023-05-08T10:09:25;101799.00;;;20.58;100.00
12987;BME280;58897;51.960;5.582;2023-05-08T10:12:01;101797.84;;;21.00;100.00
12987;BME280;58897;51.960;5.582;2023-05-08T10:14:28;101796.06;;;20.66;100.00
12987;BME280;58897;51.960;5.582;2023-05-08T10:16:56;101795.81;;;21.34;100.00
12987;BME280;58897;51.960;5.582;2023-05-08T10:19:26;101802.13;;;21.09;100.00
12987;BME280;58897;51.960;5.582;2023-05-08T10:21:54;101800.31;;;20.75;100.00
12987;BME280;58897;51.960;5.582;2023-05-08T10:24:32;101811.75;;;19.97;100.00
12987;BME280;58897;51.960;5.582;2023-05-08T10:27:13;101811.16;;;20.08;100.00
12987;BME280;58897;51.960;5.582;2023-05-08T10:29:53;101815.63;;;19.53;100.00
12987;BME280;58897;51.960;5.582;2023-05-08T10:32:21;101814.53;;;19.48;100.00
12987;BME280;58897;51.960;5.582;2023-05-08T10:34:52;101813.22;;;19.23;100.00
12987;BME280;58897;51.960;5.582;2023-05-08T10:37:21;101823.41;;;19.29;100.00
12987;BME280;58897;51.960;5.582;2023-05-08T10:39:48;101811.09;;;19.39;100.00
12987;BME280;58897;51.960;5.582;2023-05-08T10:42:15;101816.28;;;19.55;100.00
12987;BME280;58897;51.960;5.582;2023-05-08T10:44:42;101810.81;;;19.13;100.00
12987;BME280;58897;51.960;5.582;2023-05-08T10:47:24;101815.91;;;19.16;100.00
12987;BME280;58897;51.960;5.582;2023-05-08T10:50:33;101818.09;;;19.27;100.00
12987;BME280;58897;51.960;5.582;2023-05-08T10:53:23;101812.72;;;19.34;100.00
12987;BME280;58897;51.960;5.582;2023-05-08T10:55:53;101800.34;;;20.81;100.00
12987;BME280;58897;51.960;5.582;2023-05-08T10:58:34;101786.50;;;21.42;100.00
12987;BME280;58897;51.960;5.582;2023-05-08T11:03:45;101785.94;;;22.37;100.00
12987;BME280;58897;51.960;5.582;2023-05-08T11:06:13;101775.31;;;22.40;100.00
12987;BME280;58897;51.960;5.582;2023-05-08T11:08:51;101781.84;;;21.56;100.00
12987;BME280;58897;51.960;5.582;2023-05-08T11:11:30;101779.28;;;21.15;100.00
12987;BME280;58897;51.960;5.582;2023-05-08T11:14:09;101784.25;;;20.72;100.00
12987;BME280;58897;51.960;5.582;2023-05-08T11:19:23;101787.97;;;20.45;100.00
12987;BME280;58897;51.960;5.582;2023-05-08T11:22:22;101773.41;;;20.51;100.00
12987;BME280;58897;51.960;5.582;2023-05-08T11:25:08;101769.53;;;21.06;100.00
12987;BME280;58897;51.960;5.582;2023-05-08T11:35:50;101760.78;;;20.63;100.00
12987;BME280;58897;51.960;5.582;2023-05-08T11:38:34;101766.97;;;20.91;100.00
12987;BME280;58897;51.960;5.582;2023-05-08T11:41:21;101762.31;;;20.72;100.00
12987;BME280;58897;51.960;5.582;2023-05-08T11:46:41;101757.53;;;21.33;100.00
12987;BME280;58897;51.960;5.582;2023-05-08T11:49:12;101756.44;;;21.67;100.00
12987;BME280;58897;51.960;5.582;2023-05-08T11:51:39;101742.88;;;22.49;100.00
12987;BME280;58897;51.960;5.582;2023-05-08T11:54:12;101745.28;;;22.77;100.00
12987;BME280;58897;51.960;5.582;2023-05-08T11:56:39;101742.75;;;23.06;100.00
12987;BME280;58897;51.960;5.582;2023-05-08T11:59:07;101742.09;;;22.35;100.00
12987;BME280;58897;51.960;5.582;2023-05-08T12:01:34;101738.63;;;21.95;100.00
12987;BME280;58897;51.960;5.582;2023-05-08T12:04:10;101735.50;;;21.79;100.00
12987;BME280;58897;51.960;5.582;2023-05-08T12:06:39;101746.50;;;21.79;100.00
12987;BME280;58897;51.960;5.582;2023-05-08T12:09:11;101744.59;;;21.79;100.00
12987;BME280;58897;51.960;5.582;2023-05-08T12:11:38;101746.41;;;22.56;100.00
12987;BME280;58897;51.960;5.582;2023-05-08T12:14:09;101749.41;;;22.54;100.00
12987;BME280;58897;51.960;5.582;2023-05-08T12:16:37;101751.56;;;21.88;100.00
12987;BME280;58897;51.960;5.582;2023-05-08T12:19:11;101745.75;;;22.23;100.00
12987;BME280;58897;51.960;5.582;2023-05-08T12:21:44;101746.50;;;21.59;100.00
12987;BME280;58897;51.960;5.582;2023-05-08T12:24:13;101745.97;;;22.21;100.00
12987;BME280;58897;51.960;5.582;2023-05-08T12:26:41;101743.28;;;22.01;100.00
12987;BME280;58897;51.960;5.582;2023-05-08T12:29:08;101742.47;;;21.88;100.00
12987;BME280;58897;51.960;5.582;2023-05-08T12:31:35;101750.94;;;21.73;100.00
12987;BME280;58897;51.960;5.582;2023-05-08T12:34:02;101744.88;;;22.29;100.00
12987;BME280;58897;51.960;5.582;2023-05-08T12:36:36;101741.53;;;22.20;100.00
12987;BME280;58897;51.960;5.582;2023-05-08T12:39:14;101736.31;;;21.99;100.00
12987;BME280;58897;51.960;5.582;2023-05-08T12:41:48;101739.09;;;21.73;100.00
12987;BME280;58897;51.960;5.582;2023-05-08T12:44:25;101726.72;;;22.59;100.00
12987;BME280;58897;51.960;5.582;2023-05-08T12:46:53;101725.75;;;23.34;100.00
12987;BME280;58897;51.960;5.582;2023-05-08T12:49:28;101736.63;;;23.04;100.00
12987;BME280;58897;51.960;5.582;2023-05-08T12:52:06;101729.41;;;22.28;100.00
12987;BME280;58897;51.960;5.582;2023-05-08T12:54:38;101724.41;;;22.56;100.00
12987;BME280;58897;51.960;5.582;2023-05-08T12:57:17;101726.22;;;23.06;100.00
12987;BME280;58897;51.960;5.582;2023-05-08T12:59:45;101718.09;;;22.49;100.00
12987;BME280;58897;51.960;5.582;2023-05-08T13:02:16;101710.75;;;22.36;100.00
12987;BME280;58897;51.960;5.582;2023-05-08T13:04:43;101713.81;;;22.08;100.00
12987;BME280;58897;51.960;5.582;2023-05-08T13:07:10;101707.22;;;22.23;100.00
12987;BME280;58897;51.960;5.582;2023-05-08T13:09:38;101707.56;;;22.77;100.00
12987;BME280;58897;51.960;5.582;2023-05-08T13:12:04;101699.94;;;23.28;100.00
12987;BME280;58897;51.960;5.582;2023-05-08T13:14:34;101696.81;;;23.25;100.00
12987;BME280;58897;51.960;5.582;2023-05-08T13:17:00;101702.34;;;23.18;100.00
12987;BME280;58897;51.960;5.582;2023-05-08T13:19:27;101700.16;;;23.27;100.00
12987;BME280;58897;51.960;5.582;2023-05-08T13:21:53;101707.44;;;22.65;100.00
12987;BME280;58897;51.960;5.582;2023-05-08T13:24:20;101701.91;;;22.97;100.00
12987;BME280;58897;51.960;5.582;2023-05-08T13:26:46;101702.56;;;22.67;100.00
12987;BME280;58897;51.960;5.582;2023-05-08T13:29:13;101691.03;;;23.26;100.00
12987;BME280;58897;51.960;5.582;2023-05-08T13:31:40;101689.69;;;23.11;100.00
12987;BME280;58897;51.960;5.582;2023-05-08T13:34:06;101695.53;;;22.27;100.00
12987;BME280;58897;51.960;5.582;2023-05-08T13:36:33;101688.13;;;22.34;100.00